Time;durP1;ratioP1;P1;durP2;ratioP2;P2;SDS_P1;SDS_P2;PMS_P1;PMS_P2;Temp;Humidity;BMP_temperature;BMP_pressure;BME280_temperature;BME280_humidity;BME280_pressure;Samples;Min_cycle;Max_cycle;Signal;HPM_P1;HPM_P2
2022/10/13 00:00:25;;;;;;;51.03;28.58;;;8.90;99.90;;;;;;5108342;27;20525;-70
2022/10/13 00:02:51;;;;;;;61.00;30.33;;;8.90;99.90;;;;;;5094203;28;20122;-70
2022/10/13 00:05:17;;;;;;;52.58;11.38;;;8.90;99.90;;;;;;5095852;28;20058;-70
2022/10/13 00:07:42;;;;;;;61.28;29.60;;;8.90;99.90;;;;;;5102898;28;20059;-70
2022/10/13 00:10:09;;;;;;;64.10;30.17;;;8.90;99.90;;;;;;5105446;28;20067;-70
2022/10/13 00:12:36;;;;;;;47.03;28.83;;;8.90;99.90;;;;;;5102587;28;20136;-70
2022/10/13 00:15:04;;;;;;;60.70;29.58;;;8.90;99.90;;;;;;5107578;28;20043;-70
2022/10/13 00:17:30;;;;;;;51.40;30.63;;;8.90;99.90;;;;;;5100458;28;20050;-70
2022/10/13 00:19:55;;;;;;;49.58;29.45;;;8.90;99.90;;;;;;5108417;28;20059;-69
2022/10/13 00:22:21;;;;;;;56.22;29.55;;;8.90;99.90;;;;;;5105643;28;20055;-70
2022/10/13 00:24:51;;;;;;;27.23;13.82;;;9.00;99.90;;;;;;5106246;28;20043;-69
2022/10/13 00:27:16;;;;;;;60.53;32.58;;;9.10;99.90;;;;;;5103139;28;20036;-70
2022/10/13 00:29:42;;;;;;;52.60;30.70;;;8.90;99.90;;;;;;5097824;28;20039;-70
2022/10/13 00:32:08;;;;;;;49.72;29.17;;;8.90;99.90;;;;;;5107539;28;20601;-70
2022/10/13 00:34:36;;;;;;;66.20;32.92;;;9.00;99.90;;;;;;5108550;28;20043;-70
2022/10/13 00:37:02;;;;;;;65.97;30.88;;;8.90;99.90;;;;;;5090740;28;20097;-70
2022/10/13 00:39:27;;;;;;;58.88;30.52;;;9.00;99.90;;;;;;5100825;28;20663;-70
2022/10/13 00:41:53;;;;;;;28.75;13.50;;;9.00;99.90;;;;;;5099884;28;20134;-69
2022/10/13 00:44:56;;;;;;;24.95;13.10;;;9.00;99.90;;;;;;5094062;28;20121;-70
2022/10/13 00:47:24;;;;;;;32.35;10.73;;;8.90;99.90;;;;;;5107962;28;20058;-70
2022/10/13 00:49:51;;;;;;;25.48;10.63;;;8.90;99.90;;;;;;5106980;28;20602;-70
2022/10/13 00:52:19;;;;;;;63.17;29.92;;;8.90;99.90;;;;;;5108112;28;20855;-70
2022/10/13 00:54:47;;;;;;;50.83;30.38;;;8.90;99.90;;;;;;5096498;28;20050;-70
2022/10/13 00:57:13;;;;;;;65.63;33.58;;;9.00;99.90;;;;;;5102490;28;20131;-70
2022/10/13 00:59:39;;;;;;;29.65;14.10;;;9.00;99.90;;;;;;5092700;28;20169;-70
2022/10/13 01:02:06;;;;;;;60.25;33.47;;;9.00;99.90;;;;;;5102307;28;20579;-70
2022/10/13 01:04:39;;;;;;;65.68;32.40;;;9.00;99.90;;;;;;5098940;28;20040;-69
2022/10/13 01:07:05;;;;;;;28.52;13.38;;;9.10;99.90;;;;;;5094262;28;20050;-70
2022/10/13 01:09:36;;;;;;;62.10;33.88;;;9.00;99.90;;;;;;5096656;28;20043;-70
2022/10/13 01:12:12;;;;;;;58.90;31.15;;;9.10;99.90;;;;;;5108120;28;20092;-70
2022/10/13 01:14:54;;;;;;;32.17;13.27;;;9.00;99.90;;;;;;5099449;28;20412;-70
2022/10/13 01:17:33;;;;;;;34.70;13.00;;;9.00;99.90;;;;;;5105663;28;20052;-70
2022/10/13 01:20:22;;;;;;;51.53;32.22;;;9.00;99.90;;;;;;5104481;28;20056;-70
2022/10/13 01:23:11;;;;;;;59.78;33.50;;;9.00;99.90;;;;;;5087578;28;20048;-70
2022/10/13 01:26:01;;;;;;;63.65;35.50;;;9.00;99.90;;;;;;5104938;28;20043;-70
2022/10/13 01:28:34;;;;;;;63.53;32.22;;;9.10;99.90;;;;;;5100158;28;20113;-69
2022/10/13 01:31:14;;;;;;;57.38;33.67;;;9.00;99.90;;;;;;5090373;28;20046;-70
2022/10/13 01:33:39;;;;;;;59.72;34.22;;;9.10;99.90;;;;;;5107150;28;20054;-70
2022/10/13 01:36:43;;;;;;;66.97;34.65;;;9.10;99.90;;;;;;5086130;28;20048;-70
2022/10/13 01:39:26;;;;;;;56.45;33.03;;;9.10;99.90;;;;;;5097392;28;20122;-70
2022/10/13 01:41:59;;;;;;;55.63;32.03;;;9.10;99.90;;;;;;5105644;28;20048;-70
2022/10/13 01:44:36;;;;;;;63.72;33.50;;;9.10;99.90;;;;;;5098679;28;20051;-70
2022/10/13 01:47:04;;;;;;;28.15;14.35;;;9.10;99.90;;;;;;5103828;28;20082;-70
2022/10/13 01:49:34;;;;;;;49.55;32.90;;;9.10;99.90;;;;;;5101662;28;20048;-70
2022/10/13 01:52:07;;;;;;;54.50;33.75;;;9.10;99.90;;;;;;5096392;28;20040;-70
2022/10/13 01:54:34;;;;;;;56.50;30.80;;;9.10;99.90;;;;;;5095629;28;20052;-70
2022/10/13 01:56:59;;;;;;;54.97;31.77;;;9.10;99.90;;;;;;5087174;28;20488;-70
2022/10/13 01:59:28;;;;;;;46.50;31.73;;;9.00;99.90;;;;;;5088198;28;20044;-70
2022/10/13 02:02:11;;;;;;;53.53;32.20;;;9.00;99.90;;;;;;5089491;28;20517;-69
2022/10/13 02:05:01;;;;;;;66.63;33.83;;;9.00;99.90;;;;;;5107686;28;20051;-70
2022/10/13 02:07:41;;;;;;;52.08;31.80;;;9.00;99.90;;;;;;5096891;28;20614;-70
2022/10/13 02:10:29;;;;;;;30.40;13.77;;;8.90;99.90;;;;;;5104865;28;20802;-70
2022/10/13 02:13:01;;;;;;;31.45;12.90;;;8.90;99.90;;;;;;5095155;28;20109;-71
2022/10/13 02:15:39;;;;;;;53.38;32.80;;;8.80;99.90;;;;;;5090967;28;20162;-70
2022/10/13 02:18:07;;;;;;;48.00;29.85;;;8.80;99.90;;;;;;5109820;28;20054;-70
2022/10/13 02:20:34;;;;;;;53.42;32.60;;;8.90;99.90;;;;;;5080854;28;20060;-70
2022/10/13 02:23:05;;;;;;;65.88;35.63;;;8.90;99.90;;;;;;5104732;28;20036;-70
2022/10/13 02:25:33;;;;;;;72.05;35.65;;;8.80;99.90;;;;;;5110633;28;20044;-70
2022/10/13 02:28:00;;;;;;;68.10;34.92;;;8.90;99.90;;;;;;5111021;27;20124;-70
2022/10/13 02:30:28;;;;;;;54.45;31.05;;;8.90;99.90;;;;;;5109453;28;20145;-70
2022/10/13 02:32:54;;;;;;;;;;;8.90;99.90;;;;;;5100267;28;20047;-70
2022/10/13 02:35:19;;;;;;;62.30;33.28;;;8.80;99.90;;;;;;5109761;28;19931;-70
2022/10/13 02:37:46;;;;;;;82.05;34.90;;;9.00;99.90;;;;;;5102313;28;20127;-70
2022/10/13 02:40:12;;;;;;;75.72;37.47;;;9.00;99.90;;;;;;5094008;28;20051;-70
2022/10/13 02:42:37;;;;;;;61.75;35.03;;;9.10;99.90;;;;;;5110590;27;20139;-70
2022/10/13 02:45:04;;;;;;;60.50;34.85;;;9.10;99.90;;;;;;5098446;28;20478;-70
2022/10/13 02:47:30;;;;;;;67.55;35.15;;;9.20;99.90;;;;;;5099902;28;20490;-70
2022/10/13 02:49:56;;;;;;;65.15;36.58;;;9.20;99.90;;;;;;5101828;28;20105;-70
2022/10/13 02:52:21;;;;;;;60.67;35.35;;;9.20;99.90;;;;;;5110590;28;20122;-70
2022/10/13 02:54:47;;;;;;;63.63;35.90;;;9.20;99.90;;;;;;5093523;28;20130;-70
2022/10/13 02:57:12;;;;;;;61.00;34.65;;;9.20;99.90;;;;;;5100986;28;20635;-70
2022/10/13 02:59:38;;;;;;;65.10;36.80;;;9.20;99.90;;;;;;5103122;28;20048;-70
2022/10/13 03:02:05;;;;;;;66.68;37.83;;;9.20;99.90;;;;;;5107636;28;20044;-70
2022/10/13 03:04:31;;;;;;;63.97;35.13;;;9.30;99.90;;;;;;5091940;28;20506;-70
2022/10/13 03:06:57;;;;;;;67.10;36.20;;;9.30;99.90;;;;;;5102950;28;20048;-70
2022/10/13 03:09:23;;;;;;;84.03;37.83;;;9.30;99.90;;;;;;5107154;27;20385;-70
2022/10/13 03:11:48;;;;;;;63.47;37.65;;;9.20;99.90;;;;;;5101048;27;20044;-70
2022/10/13 03:14:15;;;;;;;62.92;38.05;;;9.30;99.90;;;;;;5100074;28;20039;-70
2022/10/13 03:16:41;;;;;;;68.70;38.22;;;9.40;99.90;;;;;;5095574;28;20047;-70
2022/10/13 03:19:06;;;;;;;37.35;18.25;;;9.30;99.90;;;;;;5107366;28;20742;-70
2022/10/13 03:21:32;;;;;;;31.35;13.32;;;9.30;99.90;;;;;;5095409;28;20131;-70
2022/10/13 03:23:57;;;;;;;63.87;36.23;;;9.30;99.90;;;;;;5090282;28;20079;-70
2022/10/13 03:26:23;;;;;;;65.05;37.97;;;9.30;99.90;;;;;;5108595;28;20127;-70
2022/10/13 03:28:50;;;;;;;34.92;16.25;;;9.40;99.90;;;;;;5086667;28;20108;-70
2022/10/13 03:31:16;;;;;;;28.58;12.10;;;9.40;99.90;;;;;;5104291;28;20035;-70
2022/10/13 03:33:42;;;;;;;59.70;34.97;;;9.30;99.90;;;;;;5108128;28;20055;-70
2022/10/13 03:36:10;;;;;;;69.35;39.08;;;9.40;99.90;;;;;;5108112;28;20061;-70
2022/10/13 03:38:36;;;;;;;63.15;35.47;;;9.40;99.90;;;;;;5105674;28;20469;-70
2022/10/13 03:41:19;;;;;;;63.15;36.70;;;9.40;99.90;;;;;;5095875;28;20131;-70
2022/10/13 03:43:45;;;;;;;63.22;35.45;;;9.50;99.90;;;;;;5101252;28;20050;-70
2022/10/13 03:46:12;;;;;;;40.53;16.52;;;9.50;99.90;;;;;;5102733;28;20503;-70
2022/10/13 03:48:38;;;;;;;30.25;13.27;;;9.50;99.90;;;;;;5107439;28;20063;-70
2022/10/13 03:51:13;;;;;;;62.50;36.63;;;9.40;99.90;;;;;;5098414;28;20054;-70
2022/10/13 03:53:39;;;;;;;49.10;14.48;;;9.50;99.90;;;;;;5106918;28;20043;-70
2022/10/13 03:56:13;;;;;;;30.23;15.40;;;9.50;99.90;;;;;;5107598;28;20036;-69
2022/10/13 03:58:39;;;;;;;67.88;39.50;;;9.40;99.90;;;;;;5100422;28;20040;-69
2022/10/13 04:01:05;;;;;;;70.97;39.40;;;9.50;99.90;;;;;;5100425;28;20032;-69
2022/10/13 04:03:32;;;;;;;66.70;38.30;;;9.50;99.90;;;;;;5092889;28;20031;-68
2022/10/13 04:06:02;;;;;;;75.30;41.10;;;9.50;99.90;;;;;;5098015;28;20417;-67
2022/10/13 04:08:29;;;;;;;72.72;41.53;;;9.50;99.90;;;;;;5089214;28;20052;-67
2022/10/13 04:11:03;;;;;;;79.47;39.33;;;9.60;99.90;;;;;;5098269;28;20151;-67
2022/10/13 04:13:30;;;;;;;70.10;38.70;;;9.60;99.90;;;;;;5100545;28;20066;-66
2022/10/13 04:16:01;;;;;;;37.50;15.15;;;9.60;99.90;;;;;;5100536;27;20048;-66
2022/10/13 04:18:27;;;;;;;71.05;40.13;;;9.70;99.90;;;;;;5091314;28;20400;-67
2022/10/13 04:20:53;;;;;;;78.03;40.58;;;9.60;99.90;;;;;;5108963;28;20051;-67
2022/10/13 04:23:18;;;;;;;67.22;39.83;;;9.60;99.90;;;;;;5108295;28;20073;-66
2022/10/13 04:25:44;;;;;;;67.22;41.03;;;9.60;99.90;;;;;;5105776;28;20052;-67
2022/10/13 04:28:10;;;;;;;80.72;42.53;;;9.90;99.90;;;;;;5104723;28;20039;-67
2022/10/13 04:30:36;;;;;;;68.10;38.80;;;9.60;99.90;;;;;;5107623;28;20487;-67
2022/10/13 04:33:02;;;;;;;71.93;41.80;;;9.60;99.90;;;;;;5103015;28;20071;-66
2022/10/13 04:35:28;;;;;;;73.10;46.33;;;9.60;99.90;;;;;;5108717;28;20058;-67
2022/10/13 04:37:53;;;;;;;91.97;47.05;;;9.60;99.90;;;;;;5092517;28;20036;-66
2022/10/13 04:40:19;;;;;;;74.68;42.97;;;9.60;99.90;;;;;;5107884;28;20120;-66
2022/10/13 04:42:44;;;;;;;100.68;48.70;;;9.60;99.90;;;;;;5096880;28;20043;-67
2022/10/13 04:45:10;;;;;;;74.45;43.05;;;9.60;99.90;;;;;;5104972;28;20036;-67
2022/10/13 04:47:38;;;;;;;86.95;46.88;;;9.60;99.90;;;;;;5104798;28;20858;-67
2022/10/13 04:50:04;;;;;;;67.30;41.38;;;9.70;99.90;;;;;;5100997;28;20052;-67
2022/10/13 04:52:30;;;;;;;66.07;41.00;;;9.60;99.90;;;;;;5087916;28;20147;-67
2022/10/13 04:54:55;;;;;;;65.28;41.60;;;9.70;99.90;;;;;;5088013;28;20122;-67
2022/10/13 04:57:22;;;;;;;68.78;40.22;;;9.70;99.90;;;;;;5095814;28;20052;-67
2022/10/13 04:59:48;;;;;;;58.92;39.28;;;9.70;99.90;;;;;;5108380;28;20047;-67
2022/10/13 05:02:13;;;;;;;75.45;42.47;;;9.70;99.90;;;;;;5105727;28;20058;-68
2022/10/13 05:04:39;;;;;;;81.90;46.05;;;9.70;99.90;;;;;;5107884;28;20047;-67
2022/10/13 05:07:04;;;;;;;73.25;43.30;;;9.70;99.90;;;;;;5092611;28;20446;-66
2022/10/13 05:09:30;;;;;;;76.53;46.83;;;9.70;99.90;;;;;;5101121;28;20479;-67
2022/10/13 05:11:56;;;;;;;80.43;44.38;;;9.80;99.90;;;;;;5103892;28;20120;-66
2022/10/13 05:14:22;;;;;;;81.78;47.33;;;9.70;99.90;;;;;;5094870;28;20047;-67
2022/10/13 05:16:48;;;;;;;80.40;47.40;;;9.70;99.90;;;;;;5107329;28;20040;-67
2022/10/13 05:19:14;;;;;;;82.07;46.47;;;9.80;99.90;;;;;;5106050;28;20104;-67
2022/10/13 05:21:39;;;;;;;79.00;45.78;;;9.80;99.90;;;;;;5103976;28;20043;-67
2022/10/13 05:24:05;;;;;;;86.07;48.25;;;9.80;99.90;;;;;;5093193;28;20051;-67
2022/10/13 05:26:34;;;;;;;84.15;48.58;;;9.80;99.90;;;;;;5101573;28;20089;-67
2022/10/13 05:29:01;;;;;;;32.60;16.02;;;9.90;99.90;;;;;;5100727;28;20173;-66
2022/10/13 05:31:29;;;;;;;34.53;15.82;;;9.90;99.90;;;;;;5107270;28;20449;-67
2022/10/13 05:33:55;;;;;;;88.38;47.00;;;9.80;99.90;;;;;;5105384;28;20416;-66
2022/10/13 05:36:25;;;;;;;55.70;23.77;;;9.80;99.90;;;;;;5100018;28;20493;-66
2022/10/13 05:38:52;;;;;;;96.05;46.50;;;9.70;99.90;;;;;;5107538;28;20040;-66
2022/10/13 05:41:18;;;;;;;43.25;18.85;;;9.80;99.90;;;;;;5098426;28;20039;-67
2022/10/13 05:43:44;;;;;;;88.88;46.65;;;9.80;99.90;;;;;;5078356;28;20076;-66
2022/10/13 05:46:10;;;;;;;68.47;43.35;;;9.80;99.90;;;;;;5098604;28;20115;-67
2022/10/13 05:48:37;;;;;;;73.30;45.95;;;9.80;99.90;;;;;;5107473;28;20050;-67
2022/10/13 05:51:12;;;;;;;77.40;44.78;;;9.80;99.90;;;;;;5111087;28;20396;-67
2022/10/13 05:53:41;;;;;;;77.45;44.15;;;9.90;99.90;;;;;;5111595;28;20036;-67
2022/10/13 05:56:12;;;;;;;78.15;46.55;;;9.90;99.90;;;;;;5111062;28;20172;-67
2022/10/13 05:58:52;;;;;;;86.88;51.13;;;9.90;99.90;;;;;;5105572;28;20124;-67
2022/10/13 06:01:23;;;;;;;79.35;46.47;;;9.90;99.90;;;;;;5105266;28;20040;-67
2022/10/13 06:03:51;;;;;;;74.30;45.65;;;9.90;99.90;;;;;;5106969;28;20111;-67
2022/10/13 06:06:17;;;;;;;92.15;50.05;;;9.90;99.90;;;;;;5106274;28;20040;-66
2022/10/13 06:08:43;;;;;;;67.72;43.70;;;9.90;99.90;;;;;;5098093;28;20044;-67
2022/10/13 06:11:09;;;;;;;74.32;47.10;;;10.00;99.90;;;;;;5111023;28;20039;-67
2022/10/13 06:13:34;;;;;;;87.43;49.22;;;9.90;99.90;;;;;;5101716;28;20036;-67
2022/10/13 06:16:00;;;;;;;89.63;49.15;;;10.00;99.90;;;;;;5105744;28;20090;-67
2022/10/13 06:18:26;;;;;;;96.97;51.50;;;10.00;99.90;;;;;;5098896;28;20873;-67
2022/10/13 06:20:52;;;;;;;90.80;52.47;;;10.00;99.90;;;;;;5105572;28;20059;-67
2022/10/13 06:23:17;;;;;;;86.60;49.33;;;10.00;99.90;;;;;;5110028;28;20068;-67
2022/10/13 06:25:52;;;;;;;89.50;51.03;;;10.00;99.90;;;;;;5110053;28;20062;-67
2022/10/13 06:28:19;;;;;;;89.95;49.22;;;10.10;99.90;;;;;;5106507;28;20489;-67
2022/10/13 06:30:53;;;;;;;76.03;48.78;;;10.10;99.90;;;;;;5096733;28;20048;-67
2022/10/13 06:33:20;;;;;;;84.68;47.08;;;10.10;99.90;;;;;;5097800;28;20040;-67
2022/10/13 06:35:45;;;;;;;93.80;46.53;;;10.00;99.90;;;;;;5098255;28;20048;-67
2022/10/13 06:38:11;;;;;;;50.85;20.05;;;10.10;99.90;;;;;;5105430;27;20047;-67
2022/10/13 06:40:37;;;;;;;49.40;21.95;;;10.10;99.90;;;;;;5099856;28;20047;-67
2022/10/13 06:43:03;;;;;;;76.45;48.03;;;10.10;99.90;;;;;;5102020;28;20047;-67
2022/10/13 06:45:29;;;;;;;45.45;18.73;;;10.10;99.90;;;;;;5099584;28;20067;-67
2022/10/13 06:47:54;;;;;;;72.13;47.08;;;10.20;99.90;;;;;;5102386;28;20039;-66
2022/10/13 06:50:21;;;;;;;93.32;49.03;;;10.20;99.90;;;;;;5108713;28;20047;-67
2022/10/13 06:52:47;;;;;;;42.58;19.67;;;10.20;99.90;;;;;;5102524;28;20064;-67
2022/10/13 06:55:13;;;;;;;79.65;47.55;;;10.20;99.90;;;;;;5103164;28;20445;-67
2022/10/13 06:57:38;;;;;;;81.60;48.03;;;10.20;99.90;;;;;;5109144;28;20481;-67
2022/10/13 07:00:05;;;;;;;74.70;45.85;;;10.30;99.90;;;;;;5109016;28;20044;-67
2022/10/13 07:02:31;;;;;;;69.05;44.42;;;10.20;99.90;;;;;;5106533;28;20512;-67
2022/10/13 07:04:57;;;;;;;81.50;45.28;;;10.30;99.90;;;;;;5101528;28;20044;-67
2022/10/13 07:07:22;;;;;;;80.70;47.60;;;10.30;99.90;;;;;;5107496;28;20047;-67
2022/10/13 07:09:48;;;;;;;74.22;48.60;;;10.30;99.90;;;;;;5098887;28;20450;-67
2022/10/13 07:12:14;;;;;;;90.25;48.53;;;10.30;99.90;;;;;;5106247;28;20035;-67
2022/10/13 07:14:40;;;;;;;94.72;52.40;;;10.30;99.90;;;;;;5105457;27;20119;-67
2022/10/13 07:17:06;;;;;;;105.38;50.78;;;10.40;99.90;;;;;;5097273;28;20033;-67
2022/10/13 07:19:31;;;;;;;84.80;48.38;;;10.40;99.90;;;;;;5102940;28;20097;-67
2022/10/13 07:21:57;;;;;;;86.25;48.88;;;10.40;99.90;;;;;;5094269;28;20488;-67
2022/10/13 07:24:23;;;;;;;89.18;48.85;;;10.40;99.90;;;;;;5099910;28;20043;-67
2022/10/13 07:26:49;;;;;;;80.03;46.85;;;10.50;99.90;;;;;;5106355;28;20068;-67
2022/10/13 07:29:15;;;;;;;79.45;46.65;;;10.50;99.90;;;;;;5092224;28;20134;-67
2022/10/13 07:31:42;;;;;;;85.20;47.13;;;10.50;99.90;;;;;;5105664;28;20055;-66
2022/10/13 07:34:08;;;;;;;89.45;48.95;;;10.50;99.90;;;;;;5100076;28;20039;-67
2022/10/13 07:36:34;;;;;;;98.00;51.05;;;10.60;99.90;;;;;;5107045;28;20054;-67
2022/10/13 07:39:01;;;;;;;88.60;49.97;;;10.50;99.90;;;;;;5100027;28;20409;-67
2022/10/13 07:41:27;;;;;;;92.37;50.43;;;10.60;99.90;;;;;;5106386;28;20044;-67
2022/10/13 07:43:55;;;;;;;88.68;49.95;;;10.60;99.90;;;;;;5099130;28;20285;-67
2022/10/13 07:46:22;;;;;;;87.35;49.72;;;10.70;99.90;;;;;;5098157;28;20594;-67
2022/10/13 07:48:48;;;;;;;78.47;50.90;;;10.60;99.90;;;;;;5098831;27;20667;-67
2022/10/13 07:51:14;;;;;;;94.65;50.70;;;10.60;99.90;;;;;;5098904;28;20039;-67
2022/10/13 07:53:41;;;;;;;95.43;50.83;;;10.90;99.90;;;;;;5090769;28;20032;-67
2022/10/13 07:56:09;;;;;;;75.65;49.17;;;10.70;99.90;;;;;;5092222;28;20382;-67
2022/10/13 07:58:40;;;;;;;102.10;53.72;;;10.70;99.90;;;;;;5104227;28;20050;-67
2022/10/13 08:01:07;;;;;;;86.43;50.67;;;10.80;99.90;;;;;;5107245;28;20051;-66
2022/10/13 08:03:33;;;;;;;92.65;51.28;;;10.80;99.90;;;;;;5102956;28;20040;-67
2022/10/13 08:06:00;;;;;;;79.07;49.50;;;10.90;99.90;;;;;;5099315;28;20061;-67
2022/10/13 08:08:26;;;;;;;98.07;49.90;;;10.90;99.90;;;;;;5091115;28;20044;-67
2022/10/13 08:10:52;;;;;;;94.85;52.63;;;11.00;99.90;;;;;;5096669;28;20170;-67
2022/10/13 08:13:18;;;;;;;84.15;49.83;;;11.00;99.90;;;;;;5093318;28;20032;-67
2022/10/13 08:15:44;;;;;;;88.38;51.90;;;11.10;99.90;;;;;;5109239;28;20047;-67
2022/10/13 08:18:11;;;;;;;87.88;51.60;;;11.10;99.90;;;;;;5096299;28;20097;-67
2022/10/13 08:20:42;;;;;;;90.07;49.85;;;11.20;99.90;;;;;;5099374;28;20116;-67
2022/10/13 08:23:09;;;;;;;95.63;50.13;;;11.20;99.90;;;;;;5102974;28;20558;-67
2022/10/13 08:25:39;;;;;;;83.05;49.25;;;11.30;99.90;;;;;;5099068;28;20076;-67
2022/10/13 08:28:06;;;;;;;93.82;53.40;;;11.40;99.90;;;;;;5101417;28;20046;-67
2022/10/13 08:30:32;;;;;;;91.13;51.83;;;11.40;99.90;;;;;;5101522;28;20114;-67
2022/10/13 08:32:57;;;;;;;84.35;49.85;;;11.50;99.90;;;;;;5100247;28;20572;-66
2022/10/13 08:35:23;;;;;;;94.10;55.42;;;11.60;99.90;;;;;;5098677;28;20046;-67
2022/10/13 08:37:48;;;;;;;94.78;56.45;;;11.70;99.90;;;;;;5108139;28;20126;-67
2022/10/13 08:40:18;;;;;;;99.65;56.22;;;12.00;99.90;;;;;;5074770;28;20456;-67
2022/10/13 08:42:45;;;;;;;92.82;53.17;;;12.00;99.90;;;;;;5074299;28;20048;-67
2022/10/13 08:45:23;;;;;;;99.18;52.58;;;12.00;99.90;;;;;;5106230;28;20058;-67
2022/10/13 08:48:12;;;;;;;88.38;52.17;;;12.10;99.90;;;;;;5091972;28;20044;-67
2022/10/13 08:50:41;;;;;;;93.93;54.30;;;12.10;99.90;;;;;;5095218;28;20458;-66
2022/10/13 08:53:20;;;;;;;100.93;54.17;;;12.20;99.90;;;;;;5100327;28;20471;-67
2022/10/13 08:55:53;;;;;;;98.03;53.38;;;12.20;99.90;;;;;;5091519;28;20049;-67
2022/10/13 08:58:23;;;;;;;80.47;47.35;;;12.30;99.90;;;;;;5101978;27;20050;-67
2022/10/13 09:01:08;;;;;;;93.18;51.55;;;12.40;99.90;;;;;;5107812;28;20044;-67
2022/10/13 09:03:56;;;;;;;95.43;54.10;;;12.40;99.90;;;;;;5110227;27;20047;-66
2022/10/13 09:06:27;;;;;;;;;;;12.50;99.90;;;;;;5087708;28;20044;-67
2022/10/13 09:09:08;;;;;;;81.22;47.72;;;12.50;99.90;;;;;;5098640;28;19923;-67
2022/10/13 09:11:45;;;;;;;98.70;52.25;;;12.40;99.90;;;;;;5107934;28;20047;-66
2022/10/13 09:14:20;;;;;;;85.50;51.83;;;12.50;99.90;;;;;;5106610;28;20551;-67
2022/10/13 09:16:47;;;;;;;84.57;48.90;;;12.60;99.90;;;;;;5100304;28;20404;-67
2022/10/13 09:19:24;;;;;;;89.65;50.90;;;12.60;99.90;;;;;;5099190;28;20085;-66
2022/10/13 09:22:15;;;;;;;91.67;54.60;;;12.60;99.90;;;;;;5103153;28;20066;-67
2022/10/13 09:24:40;;;;;;;83.00;50.88;;;12.70;99.90;;;;;;5111894;28;20052;-67
2022/10/13 09:27:14;;;;;;;87.57;51.08;;;12.70;99.90;;;;;;5104806;28;20134;-66
2022/10/13 09:29:40;;;;;;;77.63;49.47;;;12.70;99.90;;;;;;5111316;28;20043;-67
2022/10/13 09:32:16;;;;;;;85.43;50.97;;;12.70;99.90;;;;;;5113073;28;20039;-67
2022/10/13 09:34:42;;;;;;;90.93;50.85;;;12.80;99.90;;;;;;5110682;28;20047;-66
2022/10/13 09:37:24;;;;;;;90.63;51.95;;;12.80;99.90;;;;;;5112799;28;20059;-66
2022/10/13 09:40:18;;;;;;;93.15;52.53;;;12.80;99.90;;;;;;5112231;27;20039;-66
2022/10/13 09:42:50;;;;;;;87.57;51.53;;;12.90;99.90;;;;;;5100443;28;20194;-66
2022/10/13 09:45:21;;;;;;;92.47;52.33;;;12.80;99.90;;;;;;5100402;27;20048;-66
2022/10/13 09:47:56;;;;;;;95.95;50.85;;;12.80;99.90;;;;;;5100389;27;20044;-67
2022/10/13 09:50:28;;;;;;;90.93;49.70;;;12.90;99.90;;;;;;5097638;28;20044;-66
2022/10/13 09:53:08;;;;;;;82.13;49.30;;;12.90;99.90;;;;;;5095211;28;20244;-67
2022/10/13 09:55:37;;;;;;;83.53;50.15;;;12.90;99.90;;;;;;5099731;28;20040;-66
2022/10/13 09:58:34;;;;;;;88.05;51.92;;;13.00;99.90;;;;;;5099697;28;20048;-67
2022/10/13 10:00:59;;;;;;;86.63;52.05;;;13.10;99.90;;;;;;5109159;28;20051;-66
2022/10/13 10:03:34;;;;;;;104.13;55.60;;;13.10;99.90;;;;;;5091744;28;20051;-66
2022/10/13 10:06:01;;;;;;;87.25;49.83;;;13.20;99.90;;;;;;5110945;28;20464;-67
2022/10/13 10:08:48;;;;;;;89.15;52.45;;;13.20;99.90;;;;;;5096302;28;20047;-67
2022/10/13 10:11:21;;;;;;;88.53;53.27;;;13.30;99.90;;;;;;5102343;28;20051;-66
2022/10/13 10:13:47;;;;;;;86.45;47.53;;;13.30;99.90;;;;;;5100430;28;20050;-67
2022/10/13 10:16:30;;;;;;;86.75;50.10;;;13.40;99.90;;;;;;5096484;28;20036;-66
2022/10/13 10:19:20;;;;;;;74.55;48.30;;;13.50;99.90;;;;;;5096457;28;20496;-66
2022/10/13 10:22:02;;;;;;;75.45;49.05;;;13.40;99.90;;;;;;5103508;27;20082;-67
2022/10/13 10:24:42;;;;;;;87.90;47.83;;;13.40;99.90;;;;;;5107304;28;20088;-67
2022/10/13 10:27:17;;;;;;;93.82;50.13;;;13.40;99.90;;;;;;5108540;28;20100;-67
2022/10/13 10:30:06;;;;;;;88.93;53.53;;;13.50;99.90;;;;;;5106090;28;20043;-67
2022/10/13 10:32:37;;;;;;;78.85;49.22;;;13.50;99.90;;;;;;5095318;28;20050;-66
2022/10/13 10:35:10;;;;;;;75.03;45.47;;;13.50;99.90;;;;;;5110771;28;20031;-67
2022/10/13 10:37:36;;;;;;;80.32;46.97;;;13.50;99.90;;;;;;5105751;28;20050;-67
2022/10/13 10:40:32;;;;;;;68.20;41.90;;;13.50;99.90;;;;;;5104819;28;20146;-66
2022/10/13 10:43:18;;;;;;;84.43;45.85;;;13.60;99.90;;;;;;5103906;28;20039;-66
2022/10/13 10:45:46;;;;;;;70.07;46.90;;;13.50;99.90;;;;;;5095279;28;20047;-66
2022/10/13 10:48:15;;;;;;;88.43;49.15;;;13.40;99.90;;;;;;5101992;28;20625;-66
2022/10/13 10:50:41;;;;;;;92.97;46.22;;;13.50;99.90;;;;;;5109550;27;20051;-67
2022/10/13 10:53:36;;;;;;;81.72;47.28;;;13.50;99.90;;;;;;5103031;28;20515;-67
2022/10/13 10:56:08;;;;;;;82.80;48.30;;;13.50;99.90;;;;;;5089986;27;20089;-67
2022/10/13 10:59:01;;;;;;;80.97;46.65;;;13.40;99.90;;;;;;5090384;28;20055;-67
2022/10/13 11:01:45;;;;;;;79.95;47.97;;;13.50;99.90;;;;;;5083841;28;20104;-67
2022/10/13 11:04:35;;;;;;;91.43;52.55;;;13.50;99.90;;;;;;5099549;28;20047;-67
2022/10/13 11:07:02;;;;;;;83.03;48.55;;;13.40;99.90;;;;;;5097584;27;20044;-67
2022/10/13 11:09:40;;;;;;;78.25;46.78;;;13.50;99.90;;;;;;5104611;28;20043;-67
2022/10/13 11:12:22;;;;;;;85.00;47.92;;;13.50;99.90;;;;;;5108081;28;20480;-67
2022/10/13 11:15:10;;;;;;;79.10;48.28;;;13.30;99.90;;;;;;5109697;28;20062;-67
2022/10/13 11:17:38;;;;;;;91.20;50.67;;;13.50;99.90;;;;;;5102318;28;20043;-67
2022/10/13 11:20:16;;;;;;;82.75;51.63;;;13.30;99.90;;;;;;5104259;28;20049;-67
2022/10/13 11:23:02;;;;;;;87.45;51.17;;;13.40;99.90;;;;;;5104709;28;20489;-67
2022/10/13 11:25:47;;;;;;;80.15;48.30;;;13.30;99.90;;;;;;5107009;28;20052;-67
2022/10/13 11:28:22;;;;;;;92.72;49.60;;;13.30;99.90;;;;;;5098731;28;20554;-67
2022/10/13 11:30:54;;;;;;;101.18;52.78;;;13.40;99.90;;;;;;5107939;28;20127;-67
2022/10/13 11:33:52;;;;;;;86.32;49.70;;;13.30;99.90;;;;;;5105245;28;20031;-66
2022/10/13 11:36:31;;;;;;;84.65;52.05;;;13.50;99.90;;;;;;5094200;28;20047;-66
2022/10/13 11:39:27;;;;;;;84.00;50.88;;;13.50;99.90;;;;;;5107842;28;20036;-66
2022/10/13 11:42:11;;;;;;;94.05;53.85;;;13.50;99.90;;;;;;5102398;28;20036;-67
2022/10/13 11:44:59;;;;;;;101.68;53.33;;;13.50;99.90;;;;;;5095141;27;20578;-67
2022/10/13 11:47:52;;;;;;;93.80;54.60;;;13.60;99.90;;;;;;5098604;28;20044;-67
2022/10/13 11:50:40;;;;;;;116.97;59.13;;;13.60;99.90;;;;;;5087650;28;21243;-67
2022/10/13 11:53:22;;;;;;;91.05;51.78;;;13.60;99.90;;;;;;5103754;28;20043;-67
2022/10/13 11:55:53;;;;;;;84.63;50.72;;;13.70;99.90;;;;;;5103133;28;20132;-66
2022/10/13 11:58:22;;;;;;;102.20;56.65;;;13.70;99.90;;;;;;5109020;28;20523;-67
2022/10/13 12:01:12;;;;;;;91.55;51.83;;;13.80;99.90;;;;;;5102894;28;20489;-66
2022/10/13 12:03:44;;;;;;;90.10;52.92;;;13.70;99.90;;;;;;5106635;28;20043;-66
2022/10/13 12:06:32;;;;;;;85.70;54.58;;;13.70;99.90;;;;;;5108956;28;20516;-67
2022/10/13 12:09:19;;;;;;;91.13;54.15;;;13.70;99.90;;;;;;5099215;28;20048;-67
2022/10/13 12:11:54;;;;;;;89.80;51.90;;;13.70;99.90;;;;;;5103739;28;20404;-67
2022/10/13 12:14:22;;;;;;;82.95;50.55;;;13.60;99.90;;;;;;5100271;28;20036;-67
2022/10/13 12:16:56;;;;;;;124.03;73.80;;;13.70;99.90;;;;;;5108999;28;20084;-67
2022/10/13 12:19:25;;;;;;;150.88;81.35;;;13.70;99.90;;;;;;5104825;28;20055;-66
2022/10/13 12:21:57;;;;;;;113.82;66.65;;;13.70;99.90;;;;;;5080643;28;20051;-67
2022/10/13 12:24:26;;;;;;;113.18;65.90;;;13.70;99.90;;;;;;5101124;28;20103;-66
2022/10/13 12:26:52;;;;;;;104.63;60.60;;;13.70;99.90;;;;;;5100169;28;20134;-66
2022/10/13 12:29:23;;;;;;;88.57;53.78;;;13.80;99.90;;;;;;5096056;28;20078;-66
2022/10/13 12:31:50;;;;;;;103.88;59.47;;;13.80;99.90;;;;;;5099875;28;20039;-67
2022/10/13 12:34:16;;;;;;;99.82;57.60;;;13.70;99.90;;;;;;5088203;28;20780;-66
2022/10/13 12:36:44;;;;;;;106.50;59.17;;;13.80;99.90;;;;;;5105134;28;20048;-66
2022/10/13 12:39:14;;;;;;;98.95;57.17;;;13.70;99.90;;;;;;5090105;28;20123;-66
2022/10/13 12:41:44;;;;;;;104.78;58.30;;;13.70;99.90;;;;;;5094175;28;20059;-67
2022/10/13 12:44:18;;;;;;;97.43;58.78;;;13.70;99.90;;;;;;5099519;28;20043;-66
2022/10/13 12:46:51;;;;;;;102.70;58.95;;;13.70;99.90;;;;;;5107933;28;20059;-67
2022/10/13 12:49:25;;;;;;;97.55;60.10;;;13.70;99.90;;;;;;5107922;28;20043;-67